메인 페이지
METAR-TAF:

METAR-TAF

공항 :

애빌린, 텍사스, 미국

위도: 32-25-12N, 경도: 099-51-25W, 고도: 545m

현재 날씨관측

예보는 44분 전, 18:56시(UTC)에 발표되었습니다.
11kt
온도 25°C
습도 22%
기압 1013 hPa
시정: 16.1km
맑음

METAR: KDYS 191856Z AUTO 17011KT 10SM CLR 25/02 A2991 RMK AO2 SLP106 T02510019 PNO FZRANO $

시각: 13:40 (19:40 UTC)

예보

예보는 1 시간 40분 전, 18:00시(UTC)에 발표되었습니다.
예보 대상 시간: 19일 18시부터 20일 21시까지 (UTC)
12kt, 순간 최대 풍속 18kt
시정 10km 이상
맑음
전환 중
20일 10시부터 20일 11시까지 (UTC)
12kt, 순간 최대 풍속 18kt
시정 10km 이상
고도 1000ft 상공 구름 많음
고도 10000ft 상공 구름 많음
전환 중
20일 15시부터 20일 16시까지 (UTC)
20kt, 순간 최대 풍속 30kt
시정 10km 이상
고도 1000ft 상공 구름 많음
고도 10000ft 상공 구름 많음
전환 중
20일 17시부터 20일 18시까지 (UTC)
25kt, 순간 최대 풍속 35kt
시정 10km 이상
고도 1000ft 상공 구름 많음
고도 10000ft 상공 구름 많음

TAF: KDYS 191800Z 1918/2021 18012G18KT 9999 SKC QNH2980INS BECMG 2010/2011 18012G18KT 9999 BKN010 BKN100 510104 QNH2980INS BECMG 2015/2016 17020G30KT 9999 BKN010 BKN100 530105 QNH2982INS BECMG 2017/2018 17025G35KT 9999 BKN010 BKN100 530105 QNH2976INS TX27/1921Z TN10/2011Z

4,000개 이상의 공항 관측 자료 및 예보 (METAR 및 TAF 보고).

지도상에서 검색 가능한 기상관측소가 노란 점과 빨간 점으로 표시되어 있습니다.

기상관측소 명을 보려면 표시 위로 마우스를 이동하세요.

날씨 관측과 예보를 보려면 클릭하세요.

지도 변경 : 확대하려면 엑스 표시가 있는 녹색 버튼, 축소하려면 빼기 표시가 있는 녹색 버튼, 다음 페이지의 지도를 보려면 녹색 화살표를 클릭하세요.


METAR-TAF: